sensor_id;sensor_type;location;lat;lon;timestamp;P1;durP1;ratioP1;P2;durP2;ratioP2
70322;SDS011;57735;56.264;43.898;2022-09-17T00:02:06;14.77;;;9.05;;
70322;SDS011;57735;56.264;43.898;2022-09-17T00:04:37;13.88;;;8.63;;
70322;SDS011;57735;56.264;43.898;2022-09-17T00:07:08;15.50;;;9.40;;
70322;SDS011;57735;56.264;43.898;2022-09-17T00:09:39;16.05;;;9.55;;
70322;SDS011;57735;56.264;43.898;2022-09-17T00:12:09;15.02;;;10.25;;
70322;SDS011;57735;56.264;43.898;2022-09-17T00:14:40;12.95;;;9.65;;
70322;SDS011;57735;56.264;43.898;2022-09-17T00:17:11;13.55;;;8.88;;
70322;SDS011;57735;56.264;43.898;2022-09-17T00:19:42;15.18;;;9.65;;
70322;SDS011;57735;56.264;43.898;2022-09-17T00:22:16;16.70;;;10.50;;
70322;SDS011;57735;56.264;43.898;2022-09-17T00:24:46;14.00;;;9.93;;
70322;SDS011;57735;56.264;43.898;2022-09-17T00:27:17;16.38;;;9.73;;
70322;SDS011;57735;56.264;43.898;2022-09-17T00:29:48;16.08;;;9.70;;
70322;SDS011;57735;56.264;43.898;2022-09-17T00:32:21;13.55;;;9.23;;
70322;SDS011;57735;56.264;43.898;2022-09-17T00:34:52;15.38;;;8.07;;
70322;SDS011;57735;56.264;43.898;2022-09-17T00:37:24;15.82;;;9.13;;
70322;SDS011;57735;56.264;43.898;2022-09-17T00:39:54;16.75;;;9.75;;
70322;SDS011;57735;56.264;43.898;2022-09-17T00:42:25;16.90;;;9.98;;
70322;SDS011;57735;56.264;43.898;2022-09-17T00:44:56;16.35;;;9.30;;
70322;SDS011;57735;56.264;43.898;2022-09-17T00:47:29;16.50;;;9.55;;
70322;SDS011;57735;56.264;43.898;2022-09-17T00:51:06;16.80;;;10.05;;
70322;SDS011;57735;56.264;43.898;2022-09-17T00:53:13;15.70;;;9.40;;
70322;SDS011;57735;56.264;43.898;2022-09-17T00:58:25;17.33;;;10.48;;
70322;SDS011;57735;56.264;43.898;2022-09-17T01:00:56;17.25;;;10.57;;
70322;SDS011;57735;56.264;43.898;2022-09-17T01:03:27;18.90;;;10.90;;
70322;SDS011;57735;56.264;43.898;2022-09-17T01:11:59;17.48;;;10.50;;
70322;SDS011;57735;56.264;43.898;2022-09-17T01:14:41;23.55;;;11.80;;
70322;SDS011;57735;56.264;43.898;2022-09-17T01:17:24;25.23;;;11.00;;
70322;SDS011;57735;56.264;43.898;2022-09-17T01:20:26;21.50;;;11.50;;
70322;SDS011;57735;56.264;43.898;2022-09-17T01:37:13;21.17;;;10.18;;
70322;SDS011;57735;56.264;43.898;2022-09-17T01:39:57;23.33;;;10.68;;
70322;SDS011;57735;56.264;43.898;2022-09-17T01:48:12;15.55;;;9.05;;
70322;SDS011;57735;56.264;43.898;2022-09-17T01:50:51;16.17;;;9.18;;
70322;SDS011;57735;56.264;43.898;2022-09-17T01:54:29;17.13;;;9.55;;
70322;SDS011;57735;56.264;43.898;2022-09-17T01:56:43;16.80;;;9.60;;
70322;SDS011;57735;56.264;43.898;2022-09-17T01:59:19;15.95;;;8.23;;
70322;SDS011;57735;56.264;43.898;2022-09-17T02:02:00;14.13;;;8.00;;
70322;SDS011;57735;56.264;43.898;2022-09-17T02:04:43;15.70;;;8.82;;
70322;SDS011;57735;56.264;43.898;2022-09-17T02:07:19;14.15;;;7.70;;
70322;SDS011;57735;56.264;43.898;2022-09-17T02:09:54;11.10;;;7.18;;
70322;SDS011;57735;56.264;43.898;2022-09-17T02:15:18;15.02;;;8.68;;
70322;SDS011;57735;56.264;43.898;2022-09-17T02:17:57;15.02;;;8.38;;
70322;SDS011;57735;56.264;43.898;2022-09-17T02:21:16;13.90;;;8.10;;
70322;SDS011;57735;56.264;43.898;2022-09-17T02:23:38;13.07;;;7.95;;
70322;SDS011;57735;56.264;43.898;2022-09-17T02:26:14;16.83;;;8.63;;
70322;SDS011;57735;56.264;43.898;2022-09-17T02:28:53;13.43;;;8.00;;
70322;SDS011;57735;56.264;43.898;2022-09-17T02:31:31;13.20;;;8.45;;
70322;SDS011;57735;56.264;43.898;2022-09-17T02:34:02;15.10;;;8.02;;
70322;SDS011;57735;56.264;43.898;2022-09-17T02:36:35;11.00;;;7.63;;
70322;SDS011;57735;56.264;43.898;2022-09-17T02:39:07;14.43;;;8.18;;
70322;SDS011;57735;56.264;43.898;2022-09-17T02:47:19;14.20;;;8.15;;
70322;SDS011;57735;56.264;43.898;2022-09-17T02:55:55;13.90;;;6.82;;
70322;SDS011;57735;56.264;43.898;2022-09-17T02:58:45;11.32;;;7.18;;
70322;SDS011;57735;56.264;43.898;2022-09-17T03:04:58;13.57;;;7.53;;
70322;SDS011;57735;56.264;43.898;2022-09-17T03:07:30;14.07;;;7.72;;
70322;SDS011;57735;56.264;43.898;2022-09-17T03:10:02;12.15;;;7.03;;
70322;SDS011;57735;56.264;43.898;2022-09-17T03:12:34;12.82;;;7.22;;
70322;SDS011;57735;56.264;43.898;2022-09-17T03:15:06;12.93;;;7.05;;
70322;SDS011;57735;56.264;43.898;2022-09-17T03:17:37;11.65;;;7.50;;
70322;SDS011;57735;56.264;43.898;2022-09-17T03:20:08;12.00;;;6.90;;
70322;SDS011;57735;56.264;43.898;2022-09-17T03:22:39;12.98;;;7.32;;
70322;SDS011;57735;56.264;43.898;2022-09-17T03:25:10;11.75;;;7.78;;
70322;SDS011;57735;56.264;43.898;2022-09-17T03:27:41;11.65;;;7.07;;
70322;SDS011;57735;56.264;43.898;2022-09-17T03:30:15;9.47;;;6.57;;
70322;SDS011;57735;56.264;43.898;2022-09-17T03:32:45;15.02;;;7.70;;
70322;SDS011;57735;56.264;43.898;2022-09-17T03:35:16;13.35;;;7.15;;
70322;SDS011;57735;56.264;43.898;2022-09-17T03:37:47;11.48;;;7.07;;
70322;SDS011;57735;56.264;43.898;2022-09-17T03:40:18;16.58;;;7.57;;
70322;SDS011;57735;56.264;43.898;2022-09-17T03:42:49;12.73;;;7.43;;
70322;SDS011;57735;56.264;43.898;2022-09-17T03:45:19;11.90;;;6.82;;
70322;SDS011;57735;56.264;43.898;2022-09-17T03:47:50;10.98;;;6.90;;
70322;SDS011;57735;56.264;43.898;2022-09-17T03:50:21;12.65;;;6.90;;
70322;SDS011;57735;56.264;43.898;2022-09-17T03:52:52;12.20;;;7.05;;
70322;SDS011;57735;56.264;43.898;2022-09-17T03:55:23;10.15;;;6.70;;
70322;SDS011;57735;56.264;43.898;2022-09-17T03:57:53;11.68;;;6.95;;
70322;SDS011;57735;56.264;43.898;2022-09-17T04:00:25;10.77;;;6.13;;
70322;SDS011;57735;56.264;43.898;2022-09-17T04:02:56;10.95;;;6.22;;
70322;SDS011;57735;56.264;43.898;2022-09-17T04:05:27;10.27;;;6.13;;
70322;SDS011;57735;56.264;43.898;2022-09-17T04:07:58;9.23;;;5.93;;
70322;SDS011;57735;56.264;43.898;2022-09-17T04:10:29;8.20;;;5.35;;
70322;SDS011;57735;56.264;43.898;2022-09-17T04:12:59;9.50;;;6.13;;
70322;SDS011;57735;56.264;43.898;2022-09-17T04:15:30;8.82;;;6.25;;
70322;SDS011;57735;56.264;43.898;2022-09-17T04:18:01;9.57;;;5.75;;
70322;SDS011;57735;56.264;43.898;2022-09-17T04:20:35;10.27;;;6.27;;
70322;SDS011;57735;56.264;43.898;2022-09-17T04:23:07;11.70;;;6.72;;
70322;SDS011;57735;56.264;43.898;2022-09-17T04:25:39;10.00;;;6.32;;
70322;SDS011;57735;56.264;43.898;2022-09-17T04:28:10;9.93;;;5.95;;
70322;SDS011;57735;56.264;43.898;2022-09-17T04:30:41;12.98;;;7.00;;
70322;SDS011;57735;56.264;43.898;2022-09-17T04:33:12;9.73;;;6.38;;
70322;SDS011;57735;56.264;43.898;2022-09-17T04:35:44;8.63;;;5.95;;
70322;SDS011;57735;56.264;43.898;2022-09-17T04:38:16;10.50;;;5.88;;
70322;SDS011;57735;56.264;43.898;2022-09-17T04:40:47;11.32;;;6.35;;
70322;SDS011;57735;56.264;43.898;2022-09-17T04:43:19;10.98;;;6.95;;
70322;SDS011;57735;56.264;43.898;2022-09-17T04:45:50;9.82;;;6.50;;
70322;SDS011;57735;56.264;43.898;2022-09-17T04:48:20;10.82;;;6.68;;
70322;SDS011;57735;56.264;43.898;2022-09-17T04:50:54;11.05;;;6.28;;
70322;SDS011;57735;56.264;43.898;2022-09-17T04:53:27;9.05;;;6.13;;
70322;SDS011;57735;56.264;43.898;2022-09-17T04:56:00;9.95;;;6.30;;
70322;SDS011;57735;56.264;43.898;2022-09-17T04:58:31;9.63;;;5.93;;
70322;SDS011;57735;56.264;43.898;2022-09-17T05:01:02;11.32;;;6.90;;
70322;SDS011;57735;56.264;43.898;2022-09-17T05:03:33;10.00;;;6.32;;
70322;SDS011;57735;56.264;43.898;2022-09-17T05:06:04;9.70;;;6.25;;
70322;SDS011;57735;56.264;43.898;2022-09-17T05:08:35;9.88;;;7.00;;
70322;SDS011;57735;56.264;43.898;2022-09-17T05:11:06;14.20;;;7.00;;
70322;SDS011;57735;56.264;43.898;2022-09-17T05:13:39;12.00;;;7.05;;
70322;SDS011;57735;56.264;43.898;2022-09-17T05:16:10;11.05;;;7.35;;
70322;SDS011;57735;56.264;43.898;2022-09-17T05:18:41;13.27;;;7.22;;
70322;SDS011;57735;56.264;43.898;2022-09-17T05:21:12;10.15;;;7.15;;
70322;SDS011;57735;56.264;43.898;2022-09-17T05:23:43;10.55;;;7.25;;
70322;SDS011;57735;56.264;43.898;2022-09-17T05:26:14;13.40;;;7.47;;
70322;SDS011;57735;56.264;43.898;2022-09-17T05:28:45;11.77;;;7.43;;
70322;SDS011;57735;56.264;43.898;2022-09-17T05:31:15;13.20;;;8.50;;
70322;SDS011;57735;56.264;43.898;2022-09-17T05:33:46;13.20;;;8.43;;
70322;SDS011;57735;56.264;43.898;2022-09-17T05:36:17;14.98;;;10.15;;
70322;SDS011;57735;56.264;43.898;2022-09-17T05:38:48;15.00;;;10.50;;
70322;SDS011;57735;56.264;43.898;2022-09-17T05:41:19;17.77;;;11.48;;
70322;SDS011;57735;56.264;43.898;2022-09-17T05:43:50;15.38;;;8.93;;
70322;SDS011;57735;56.264;43.898;2022-09-17T05:46:21;15.20;;;8.30;;
70322;SDS011;57735;56.264;43.898;2022-09-17T05:48:54;17.17;;;9.10;;
70322;SDS011;57735;56.264;43.898;2022-09-17T05:51:26;19.10;;;8.40;;
70322;SDS011;57735;56.264;43.898;2022-09-17T05:53:59;14.05;;;7.38;;
70322;SDS011;57735;56.264;43.898;2022-09-17T05:56:30;11.38;;;7.05;;
70322;SDS011;57735;56.264;43.898;2022-09-17T05:59:01;12.40;;;7.60;;
70322;SDS011;57735;56.264;43.898;2022-09-17T06:01:32;19.13;;;8.25;;
70322;SDS011;57735;56.264;43.898;2022-09-17T06:04:02;15.13;;;6.90;;
70322;SDS011;57735;56.264;43.898;2022-09-17T06:06:34;14.60;;;7.22;;
70322;SDS011;57735;56.264;43.898;2022-09-17T06:09:08;15.00;;;7.43;;
70322;SDS011;57735;56.264;43.898;2022-09-17T06:11:39;17.35;;;6.53;;
70322;SDS011;57735;56.264;43.898;2022-09-17T06:14:10;12.32;;;5.57;;
70322;SDS011;57735;56.264;43.898;2022-09-17T06:16:41;12.45;;;5.35;;
70322;SDS011;57735;56.264;43.898;2022-09-17T06:19:12;12.90;;;5.22;;
70322;SDS011;57735;56.264;43.898;2022-09-17T06:21:42;20.15;;;6.55;;
70322;SDS011;57735;56.264;43.898;2022-09-17T06:24:13;14.55;;;5.28;;
70322;SDS011;57735;56.264;43.898;2022-09-17T06:26:44;17.13;;;5.07;;
70322;SDS011;57735;56.264;43.898;2022-09-17T06:29:15;13.80;;;5.00;;
70322;SDS011;57735;56.264;43.898;2022-09-17T06:31:46;11.43;;;4.80;;
70322;SDS011;57735;56.264;43.898;2022-09-17T06:34:18;15.00;;;5.30;;
70322;SDS011;57735;56.264;43.898;2022-09-17T06:36:49;8.85;;;4.18;;
70322;SDS011;57735;56.264;43.898;2022-09-17T06:39:20;6.22;;;3.83;;
70322;SDS011;57735;56.264;43.898;2022-09-17T06:41:50;8.88;;;4.28;;
70322;SDS011;57735;56.264;43.898;2022-09-17T06:44:21;15.70;;;4.88;;
70322;SDS011;57735;56.264;43.898;2022-09-17T06:46:55;13.47;;;5.27;;
70322;SDS011;57735;56.264;43.898;2022-09-17T06:49:26;11.40;;;4.13;;
70322;SDS011;57735;56.264;43.898;2022-09-17T06:52:00;7.40;;;3.35;;
70322;SDS011;57735;56.264;43.898;2022-09-17T06:54:33;6.07;;;3.20;;
70322;SDS011;57735;56.264;43.898;2022-09-17T06:57:04;8.02;;;3.00;;
70322;SDS011;57735;56.264;43.898;2022-09-17T06:59:35;8.52;;;3.38;;
70322;SDS011;57735;56.264;43.898;2022-09-17T07:02:07;12.10;;;4.00;;
70322;SDS011;57735;56.264;43.898;2022-09-17T07:04:38;10.52;;;3.75;;
70322;SDS011;57735;56.264;43.898;2022-09-17T07:07:09;8.05;;;4.00;;
70322;SDS011;57735;56.264;43.898;2022-09-17T07:09:40;11.63;;;3.03;;
70322;SDS011;57735;56.264;43.898;2022-09-17T07:12:10;10.45;;;3.33;;
70322;SDS011;57735;56.264;43.898;2022-09-17T07:14:41;13.43;;;3.92;;
70322;SDS011;57735;56.264;43.898;2022-09-17T07:17:13;11.68;;;3.95;;
70322;SDS011;57735;56.264;43.898;2022-09-17T07:19:44;8.27;;;3.30;;
70322;SDS011;57735;56.264;43.898;2022-09-17T07:22:15;10.68;;;3.25;;
70322;SDS011;57735;56.264;43.898;2022-09-17T07:24:46;11.70;;;4.15;;
70322;SDS011;57735;56.264;43.898;2022-09-17T07:27:17;6.57;;;3.70;;
70322;SDS011;57735;56.264;43.898;2022-09-17T07:29:47;9.20;;;3.30;;
70322;SDS011;57735;56.264;43.898;2022-09-17T07:32:21;6.95;;;2.97;;
70322;SDS011;57735;56.264;43.898;2022-09-17T07:34:52;10.75;;;4.25;;
70322;SDS011;57735;56.264;43.898;2022-09-17T07:37:28;14.50;;;5.63;;
70322;SDS011;57735;56.264;43.898;2022-09-17T07:39:59;11.13;;;3.63;;
70322;SDS011;57735;56.264;43.898;2022-09-17T07:42:30;12.80;;;4.75;;
70322;SDS011;57735;56.264;43.898;2022-09-17T07:45:02;11.20;;;5.80;;
70322;SDS011;57735;56.264;43.898;2022-09-17T07:47:37;11.60;;;4.30;;
70322;SDS011;57735;56.264;43.898;2022-09-17T07:50:09;9.40;;;3.50;;
70322;SDS011;57735;56.264;43.898;2022-09-17T07:52:46;15.57;;;3.72;;
70322;SDS011;57735;56.264;43.898;2022-09-17T07:55:17;9.18;;;4.00;;
70322;SDS011;57735;56.264;43.898;2022-09-17T07:57:51;13.60;;;4.68;;
70322;SDS011;57735;56.264;43.898;2022-09-17T08:00:22;15.40;;;4.20;;
70322;SDS011;57735;56.264;43.898;2022-09-17T08:02:53;8.82;;;3.22;;
70322;SDS011;57735;56.264;43.898;2022-09-17T08:05:25;11.52;;;4.18;;
70322;SDS011;57735;56.264;43.898;2022-09-17T08:07:56;9.95;;;3.80;;
70322;SDS011;57735;56.264;43.898;2022-09-17T08:10:28;13.80;;;3.83;;
70322;SDS011;57735;56.264;43.898;2022-09-17T08:12:58;8.07;;;4.00;;
70322;SDS011;57735;56.264;43.898;2022-09-17T08:15:30;8.35;;;3.55;;
70322;SDS011;57735;56.264;43.898;2022-09-17T08:18:00;7.75;;;3.67;;
70322;SDS011;57735;56.264;43.898;2022-09-17T08:20:31;9.43;;;3.60;;
70322;SDS011;57735;56.264;43.898;2022-09-17T08:23:03;7.63;;;3.63;;
70322;SDS011;57735;56.264;43.898;2022-09-17T08:25:34;5.80;;;3.35;;
70322;SDS011;57735;56.264;43.898;2022-09-17T08:28:04;8.10;;;3.42;;
70322;SDS011;57735;56.264;43.898;2022-09-17T08:30:35;6.57;;;3.65;;
70322;SDS011;57735;56.264;43.898;2022-09-17T08:33:06;6.20;;;3.70;;
70322;SDS011;57735;56.264;43.898;2022-09-17T08:35:37;9.07;;;3.83;;
70322;SDS011;57735;56.264;43.898;2022-09-17T08:38:07;6.03;;;3.42;;
70322;SDS011;57735;56.264;43.898;2022-09-17T08:40:41;4.28;;;3.40;;
70322;SDS011;57735;56.264;43.898;2022-09-17T08:43:18;7.13;;;3.00;;
70322;SDS011;57735;56.264;43.898;2022-09-17T08:45:53;7.35;;;3.17;;
70322;SDS011;57735;56.264;43.898;2022-09-17T08:48:26;8.23;;;3.35;;
70322;SDS011;57735;56.264;43.898;2022-09-17T08:54:05;7.22;;;3.45;;
70322;SDS011;57735;56.264;43.898;2022-09-17T08:57:19;6.05;;;2.90;;
70322;SDS011;57735;56.264;43.898;2022-09-17T09:00:15;4.68;;;2.80;;
70322;SDS011;57735;56.264;43.898;2022-09-17T09:06:04;4.18;;;2.38;;
70322;SDS011;57735;56.264;43.898;2022-09-17T09:11:22;5.63;;;2.45;;
70322;SDS011;57735;56.264;43.898;2022-09-17T09:14:03;4.35;;;2.47;;
70322;SDS011;57735;56.264;43.898;2022-09-17T09:16:41;5.83;;;2.70;;
70322;SDS011;57735;56.264;43.898;2022-09-17T09:24:38;7.68;;;3.22;;
70322;SDS011;57735;56.264;43.898;2022-09-17T09:35:43;6.32;;;2.50;;
70322;SDS011;57735;56.264;43.898;2022-09-17T09:38:28;5.32;;;2.58;;
70322;SDS011;57735;56.264;43.898;2022-09-17T09:43:56;5.63;;;2.53;;
70322;SDS011;57735;56.264;43.898;2022-09-17T09:49:26;4.82;;;2.33;;
70322;SDS011;57735;56.264;43.898;2022-09-17T09:57:48;7.65;;;2.17;;
70322;SDS011;57735;56.264;43.898;2022-09-17T10:03:02;5.18;;;2.30;;
70322;SDS011;57735;56.264;43.898;2022-09-17T10:05:51;9.75;;;2.50;;
70322;SDS011;57735;56.264;43.898;2022-09-17T10:08:33;5.72;;;2.33;;
70322;SDS011;57735;56.264;43.898;2022-09-17T10:13:47;4.20;;;1.88;;
70322;SDS011;57735;56.264;43.898;2022-09-17T10:21:40;4.15;;;2.10;;
70322;SDS011;57735;56.264;43.898;2022-09-17T10:27:04;3.33;;;2.20;;
70322;SDS011;57735;56.264;43.898;2022-09-17T10:29:46;5.38;;;1.30;;
70322;SDS011;57735;56.264;43.898;2022-09-17T10:32:22;5.60;;;1.88;;
70322;SDS011;57735;56.264;43.898;2022-09-17T10:37:57;4.95;;;1.83;;
70322;SDS011;57735;56.264;43.898;2022-09-17T10:40:29;11.43;;;2.30;;
70322;SDS011;57735;56.264;43.898;2022-09-17T10:45:56;5.13;;;1.80;;
70322;SDS011;57735;56.264;43.898;2022-09-17T10:48:35;4.35;;;2.13;;
70322;SDS011;57735;56.264;43.898;2022-09-17T10:51:18;3.97;;;1.70;;
70322;SDS011;57735;56.264;43.898;2022-09-17T10:54:02;7.90;;;2.17;;
70322;SDS011;57735;56.264;43.898;2022-09-17T10:56:56;8.15;;;2.83;;
70322;SDS011;57735;56.264;43.898;2022-09-17T10:59:40;4.63;;;2.22;;
70322;SDS011;57735;56.264;43.898;2022-09-17T11:08:55;12.82;;;4.45;;
70322;SDS011;57735;56.264;43.898;2022-09-17T11:20:21;16.98;;;6.90;;
70322;SDS011;57735;56.264;43.898;2022-09-17T11:37:37;8.55;;;2.20;;
70322;SDS011;57735;56.264;43.898;2022-09-17T11:40:14;5.68;;;1.98;;
70322;SDS011;57735;56.264;43.898;2022-09-17T11:42:53;3.47;;;1.70;;
70322;SDS011;57735;56.264;43.898;2022-09-17T11:45:33;3.72;;;1.60;;
70322;SDS011;57735;56.264;43.898;2022-09-17T11:48:15;4.43;;;1.38;;
70322;SDS011;57735;56.264;43.898;2022-09-17T11:50:58;5.13;;;1.90;;
70322;SDS011;57735;56.264;43.898;2022-09-17T11:53:36;2.70;;;1.60;;
70322;SDS011;57735;56.264;43.898;2022-09-17T11:56:30;2.88;;;1.52;;
70322;SDS011;57735;56.264;43.898;2022-09-17T12:02:01;2.67;;;1.40;;
70322;SDS011;57735;56.264;43.898;2022-09-17T12:04:47;2.72;;;1.50;;
70322;SDS011;57735;56.264;43.898;2022-09-17T12:12:57;6.22;;;1.92;;
70322;SDS011;57735;56.264;43.898;2022-09-17T12:15:33;2.38;;;1.30;;
70322;SDS011;57735;56.264;43.898;2022-09-17T12:20:42;5.97;;;2.17;;
70322;SDS011;57735;56.264;43.898;2022-09-17T12:23:17;7.50;;;2.50;;
70322;SDS011;57735;56.264;43.898;2022-09-17T12:26:18;4.03;;;2.50;;
70322;SDS011;57735;56.264;43.898;2022-09-17T12:38:14;7.68;;;4.47;;
70322;SDS011;57735;56.264;43.898;2022-09-17T12:55:29;9.70;;;4.18;;
70322;SDS011;57735;56.264;43.898;2022-09-17T12:58:35;10.18;;;4.32;;
70322;SDS011;57735;56.264;43.898;2022-09-17T13:01:38;15.57;;;5.53;;
70322;SDS011;57735;56.264;43.898;2022-09-17T13:04:40;13.15;;;4.50;;
70322;SDS011;57735;56.264;43.898;2022-09-17T13:18:33;8.40;;;4.53;;
70322;SDS011;57735;56.264;43.898;2022-09-17T13:21:10;8.75;;;4.32;;
70322;SDS011;57735;56.264;43.898;2022-09-17T13:23:49;8.90;;;4.53;;
70322;SDS011;57735;56.264;43.898;2022-09-17T13:26:32;15.27;;;4.93;;
70322;SDS011;57735;56.264;43.898;2022-09-17T13:29:05;7.68;;;4.60;;
70322;SDS011;57735;56.264;43.898;2022-09-17T13:36:47;19.38;;;8.43;;
70322;SDS011;57735;56.264;43.898;2022-09-17T13:39:36;14.55;;;5.38;;
70322;SDS011;57735;56.264;43.898;2022-09-17T13:47:31;8.35;;;3.63;;
70322;SDS011;57735;56.264;43.898;2022-09-17T13:50:05;7.95;;;3.15;;
70322;SDS011;57735;56.264;43.898;2022-09-17T13:52:42;7.65;;;3.50;;
70322;SDS011;57735;56.264;43.898;2022-09-17T13:55:30;7.57;;;3.78;;
70322;SDS011;57735;56.264;43.898;2022-09-17T13:58:06;7.82;;;3.33;;
70322;SDS011;57735;56.264;43.898;2022-09-17T14:08:45;8.02;;;4.53;;
70322;SDS011;57735;56.264;43.898;2022-09-17T14:13:53;12.48;;;5.20;;
70322;SDS011;57735;56.264;43.898;2022-09-17T14:16:39;9.52;;;4.85;;
70322;SDS011;57735;56.264;43.898;2022-09-17T14:19:23;12.32;;;5.25;;
70322;SDS011;57735;56.264;43.898;2022-09-17T14:22:07;10.75;;;4.63;;
70322;SDS011;57735;56.264;43.898;2022-09-17T14:24:46;13.60;;;5.00;;
70322;SDS011;57735;56.264;43.898;2022-09-17T14:27:30;13.93;;;5.22;;
70322;SDS011;57735;56.264;43.898;2022-09-17T14:30:19;16.73;;;5.75;;
70322;SDS011;57735;56.264;43.898;2022-09-17T14:35:35;10.23;;;4.70;;
70322;SDS011;57735;56.264;43.898;2022-09-17T14:38:20;14.75;;;5.47;;
70322;SDS011;57735;56.264;43.898;2022-09-17T14:40:59;11.15;;;4.97;;
70322;SDS011;57735;56.264;43.898;2022-09-17T14:46:13;10.43;;;4.70;;
70322;SDS011;57735;56.264;43.898;2022-09-17T14:48:50;11.65;;;4.57;;
70322;SDS011;57735;56.264;43.898;2022-09-17T14:51:23;9.57;;;3.92;;
70322;SDS011;57735;56.264;43.898;2022-09-17T14:54:06;10.65;;;4.18;;
70322;SDS011;57735;56.264;43.898;2022-09-17T14:56:45;9.02;;;3.95;;
70322;SDS011;57735;56.264;43.898;2022-09-17T15:01:56;7.15;;;4.28;;
70322;SDS011;57735;56.264;43.898;2022-09-17T15:04:30;11.73;;;4.50;;
70322;SDS011;57735;56.264;43.898;2022-09-17T15:07:08;13.57;;;4.45;;
70322;SDS011;57735;56.264;43.898;2022-09-17T15:09:41;11.73;;;4.82;;
70322;SDS011;57735;56.264;43.898;2022-09-17T15:12:14;16.05;;;6.45;;
70322;SDS011;57735;56.264;43.898;2022-09-17T15:14:49;21.27;;;6.32;;
70322;SDS011;57735;56.264;43.898;2022-09-17T15:17:26;13.50;;;6.53;;
70322;SDS011;57735;56.264;43.898;2022-09-17T15:19:59;15.73;;;6.72;;
70322;SDS011;57735;56.264;43.898;2022-09-17T15:22:36;19.52;;;7.22;;
70322;SDS011;57735;56.264;43.898;2022-09-17T15:25:18;19.35;;;7.18;;
70322;SDS011;57735;56.264;43.898;2022-09-17T15:27:55;15.53;;;6.03;;
70322;SDS011;57735;56.264;43.898;2022-09-17T15:30:27;14.05;;;7.13;;
70322;SDS011;57735;56.264;43.898;2022-09-17T15:32:59;10.43;;;5.82;;
70322;SDS011;57735;56.264;43.898;2022-09-17T15:35:31;17.70;;;8.60;;
70322;SDS011;57735;56.264;43.898;2022-09-17T15:38:17;26.73;;;6.55;;
70322;SDS011;57735;56.264;43.898;2022-09-17T15:40:50;16.13;;;6.32;;
70322;SDS011;57735;56.264;43.898;2022-09-17T15:45:57;12.57;;;6.13;;
70322;SDS011;57735;56.264;43.898;2022-09-17T15:49:03;11.20;;;5.07;;
70322;SDS011;57735;56.264;43.898;2022-09-17T15:51:53;12.25;;;5.55;;
70322;SDS011;57735;56.264;43.898;2022-09-17T15:54:27;15.30;;;5.15;;
70322;SDS011;57735;56.264;43.898;2022-09-17T15:57:00;8.05;;;4.25;;
70322;SDS011;57735;56.264;43.898;2022-09-17T15:59:31;13.13;;;5.00;;
70322;SDS011;57735;56.264;43.898;2022-09-17T16:02:04;10.57;;;4.40;;
70322;SDS011;57735;56.264;43.898;2022-09-17T16:04:52;11.23;;;5.70;;
70322;SDS011;57735;56.264;43.898;2022-09-17T16:07:44;12.02;;;4.70;;
70322;SDS011;57735;56.264;43.898;2022-09-17T16:10:15;10.75;;;4.40;;
70322;SDS011;57735;56.264;43.898;2022-09-17T16:12:48;12.20;;;4.00;;
70322;SDS011;57735;56.264;43.898;2022-09-17T16:15:21;9.23;;;3.90;;
70322;SDS011;57735;56.264;43.898;2022-09-17T16:17:52;12.00;;;4.25;;
70322;SDS011;57735;56.264;43.898;2022-09-17T16:20:23;8.35;;;3.40;;
70322;SDS011;57735;56.264;43.898;2022-09-17T16:22:54;11.05;;;3.97;;
70322;SDS011;57735;56.264;43.898;2022-09-17T16:25:26;13.30;;;3.60;;
70322;SDS011;57735;56.264;43.898;2022-09-17T16:27:59;9.75;;;4.00;;
70322;SDS011;57735;56.264;43.898;2022-09-17T16:33:03;11.45;;;4.32;;
70322;SDS011;57735;56.264;43.898;2022-09-17T16:35:36;10.15;;;4.03;;
70322;SDS011;57735;56.264;43.898;2022-09-17T16:38:08;13.93;;;5.38;;
70322;SDS011;57735;56.264;43.898;2022-09-17T16:40:43;11.65;;;4.85;;
70322;SDS011;57735;56.264;43.898;2022-09-17T16:43:17;16.70;;;5.25;;
70322;SDS011;57735;56.264;43.898;2022-09-17T16:45:57;11.55;;;4.60;;
70322;SDS011;57735;56.264;43.898;2022-09-17T16:48:32;11.18;;;4.53;;
70322;SDS011;57735;56.264;43.898;2022-09-17T16:51:07;8.30;;;4.40;;
70322;SDS011;57735;56.264;43.898;2022-09-17T16:53:45;12.20;;;4.30;;
70322;SDS011;57735;56.264;43.898;2022-09-17T16:56:16;12.90;;;4.25;;
70322;SDS011;57735;56.264;43.898;2022-09-17T16:58:47;11.43;;;4.53;;
70322;SDS011;57735;56.264;43.898;2022-09-17T17:01:18;8.68;;;3.70;;
70322;SDS011;57735;56.264;43.898;2022-09-17T17:03:49;14.55;;;5.20;;
70322;SDS011;57735;56.264;43.898;2022-09-17T17:06:21;6.65;;;3.67;;
70322;SDS011;57735;56.264;43.898;2022-09-17T17:08:52;12.38;;;4.60;;
70322;SDS011;57735;56.264;43.898;2022-09-17T17:11:22;10.23;;;4.35;;
70322;SDS011;57735;56.264;43.898;2022-09-17T17:13:56;11.27;;;4.70;;
70322;SDS011;57735;56.264;43.898;2022-09-17T17:16:27;10.90;;;4.57;;
70322;SDS011;57735;56.264;43.898;2022-09-17T17:18:57;17.23;;;4.57;;
70322;SDS011;57735;56.264;43.898;2022-09-17T17:21:28;13.32;;;4.30;;
70322;SDS011;57735;56.264;43.898;2022-09-17T17:23:59;16.90;;;4.93;;
70322;SDS011;57735;56.264;43.898;2022-09-17T17:26:30;12.80;;;4.40;;
70322;SDS011;57735;56.264;43.898;2022-09-17T17:29:01;15.98;;;4.47;;
70322;SDS011;57735;56.264;43.898;2022-09-17T17:31:31;10.02;;;4.72;;
70322;SDS011;57735;56.264;43.898;2022-09-17T17:34:02;9.32;;;4.30;;
70322;SDS011;57735;56.264;43.898;2022-09-17T17:36:36;9.85;;;4.70;;
70322;SDS011;57735;56.264;43.898;2022-09-17T17:39:07;15.40;;;4.10;;
70322;SDS011;57735;56.264;43.898;2022-09-17T17:41:38;10.38;;;4.20;;
70322;SDS011;57735;56.264;43.898;2022-09-17T17:44:09;11.23;;;4.53;;
70322;SDS011;57735;56.264;43.898;2022-09-17T17:46:43;9.32;;;4.45;;
70322;SDS011;57735;56.264;43.898;2022-09-17T17:49:13;11.75;;;4.78;;
70322;SDS011;57735;56.264;43.898;2022-09-17T17:51:46;12.23;;;4.43;;
70322;SDS011;57735;56.264;43.898;2022-09-17T17:54:17;8.82;;;4.53;;
70322;SDS011;57735;56.264;43.898;2022-09-17T17:56:48;10.65;;;4.35;;
70322;SDS011;57735;56.264;43.898;2022-09-17T17:59:19;8.95;;;3.80;;
70322;SDS011;57735;56.264;43.898;2022-09-17T18:01:50;11.45;;;4.50;;
70322;SDS011;57735;56.264;43.898;2022-09-17T18:04:21;14.52;;;4.03;;
70322;SDS011;57735;56.264;43.898;2022-09-17T18:06:56;9.25;;;3.90;;
70322;SDS011;57735;56.264;43.898;2022-09-17T18:09:29;12.98;;;4.15;;
70322;SDS011;57735;56.264;43.898;2022-09-17T18:12:00;9.43;;;3.88;;
70322;SDS011;57735;56.264;43.898;2022-09-17T18:14:31;9.60;;;3.88;;
70322;SDS011;57735;56.264;43.898;2022-09-17T18:17:02;9.57;;;4.30;;
70322;SDS011;57735;56.264;43.898;2022-09-17T18:19:33;8.90;;;3.63;;
70322;SDS011;57735;56.264;43.898;2022-09-17T18:22:08;5.97;;;3.15;;
70322;SDS011;57735;56.264;43.898;2022-09-17T18:24:40;8.60;;;3.42;;
70322;SDS011;57735;56.264;43.898;2022-09-17T18:27:10;12.43;;;3.60;;
70322;SDS011;57735;56.264;43.898;2022-09-17T18:29:41;8.13;;;3.33;;
70322;SDS011;57735;56.264;43.898;2022-09-17T18:32:12;11.38;;;3.65;;
70322;SDS011;57735;56.264;43.898;2022-09-17T18:34:43;7.57;;;3.38;;
70322;SDS011;57735;56.264;43.898;2022-09-17T18:37:14;12.98;;;4.15;;
70322;SDS011;57735;56.264;43.898;2022-09-17T18:39:44;10.02;;;3.78;;
70322;SDS011;57735;56.264;43.898;2022-09-17T18:42:15;13.85;;;4.28;;